HomeShort term forecast

Short term forecast

Graphical weather forecast for the next 48 hours for Montreal:
Short term forecast
This weather forecast is automatically refreshed every 3 hours.

Hourly Experimental Forecast for the next 48 hours

Overall summary: Rain starting tomorrow morning.

 Date & Hour   Temp   Feel   Baro   Hum   Speed & Bearing   Wind Gust   Precip.%   Precip.   Visibility   Cloud cover   Conditions 
 24/09/2018 - 14:00  13.6°C  13.6°C  1035.2 hPa  39%  16.4 km/h   25.8 km/h  0%  --  16.1km  7%  Clear 
 24/09/2018 - 15:00  15.3°C  15.3°C  1034.1 hPa  36%  16.2 km/h   22.3 km/h  0%  --  16.1km  5%  Clear 
 24/09/2018 - 16:00  16.3°C  16.3°C  1033.5 hPa  36%  15.8 km/h   20.7 km/h  0%  --  16.1km  6%  Clear 
 24/09/2018 - 17:00  16.3°C  16.3°C  1033.0 hPa  38%  15.5 km/h   21.3 km/h  2%  0.04 mm/h  16.1km  10%  Clear 
 24/09/2018 - 18:00  15.4°C  15.4°C  1033.1 hPa  40%  15.2 km/h   23.9 km/h  0%  --  16.1km  17%  Clear 
 24/09/2018 - 19:00  13.9°C  13.9°C  1033.1 hPa  43%  15.0 km/h   29.2 km/h  3%  0.05 mm/h  16.1km  33%  Partly Cloudy 
 24/09/2018 - 20:00  13.0°C  13.0°C  1033.3 hPa  45%  14.7 km/h   30.1 km/h  0%  --  16.1km  38%  Partly Cloudy 
 24/09/2018 - 21:00  12.3°C  12.3°C  1032.9 hPa  48%  12.4 km/h   28.0 km/h  2%  0.04 mm/h  16.1km  25%  Partly Cloudy 
 24/09/2018 - 22:00  11.9°C  11.9°C  1032.8 hPa  51%  11.5 km/h   24.8 km/h  0%  --  16.1km  35%  Partly Cloudy 
 24/09/2018 - 23:00  11.5°C  11.5°C  1032.6 hPa  55%  10.8 km/h   23.3 km/h  2%  0.02 mm/h  16.1km  41%  Partly Cloudy 
 25/09/2018 - 00:00  11.2°C  11.2°C  1032.3 hPa  58%  11.7 km/h   24.9 km/h  2%  0.01 mm/h  16.1km  39%  Partly Cloudy 
 25/09/2018 - 01:00  11.1°C  11.1°C  1032.0 hPa  62%  13.0 km/h   28.6 km/h  2%  0.04 mm/h  16.1km  41%  Partly Cloudy 
 25/09/2018 - 02:00  11.0°C  11.0°C  1031.6 hPa  65%  13.9 km/h   32.8 km/h  0%  --  16.1km  52%  Partly Cloudy 
 25/09/2018 - 03:00  10.9°C  10.9°C  1031.4 hPa  63%  16.5 km/h   42.5 km/h  0%  --  16.1km  57%  Partly Cloudy 
 25/09/2018 - 04:00  10.6°C  10.6°C  1031.0 hPa  63%  16.5 km/h   42.9 km/h  0%  --  16.1km  76%  Mostly Cloudy 
 25/09/2018 - 05:00  10.5°C  10.5°C  1030.7 hPa  63%  16.7 km/h   43.2 km/h  0%  --  16.1km  90%  Mostly Cloudy 
 25/09/2018 - 06:00  10.6°C  10.6°C  1030.2 hPa  62%  17.2 km/h   43.5 km/h  0%  --  16.1km  95%  Overcast 
 25/09/2018 - 07:00  10.7°C  10.7°C  1029.7 hPa  61%  17.8 km/h   43.7 km/h  0%  --  16.1km  95%  Overcast 
 25/09/2018 - 08:00  10.8°C  10.8°C  1029.1 hPa  62%  18.5 km/h   44.6 km/h  0%  --  16.1km  96%  Overcast 
 25/09/2018 - 09:00  10.7°C  10.7°C  1028.3 hPa  69%  19.5 km/h   47.2 km/h  31%  0.23 mm/h  16.1km  97%  Overcast 
 25/09/2018 - 10:00  10.8°C  10.8°C  1027.3 hPa  76%  20.6 km/h   50.5 km/h  63%  1.28 mm/h  16.1km  99%  Light Rain 
 25/09/2018 - 11:00  11.1°C  11.1°C  1026.3 hPa  83%  21.5 km/h   53.0 km/h  74%  2.55 mm/h  16.1km  100%  Rain 
 25/09/2018 - 12:00  11.6°C  11.6°C  1025.4 hPa  86%  21.8 km/h   53.7 km/h  79%  2.97 mm/h  15.4km  100%  Rain 
 25/09/2018 - 13:00  12.2°C  12.2°C  1024.4 hPa  86%  21.8 km/h   53.5 km/h  80%  2.83 mm/h  14.3km  100%  Rain 
 25/09/2018 - 14:00  12.8°C  12.8°C  1023.4 hPa  87%  21.8 km/h   53.1 km/h  79%  2.56 mm/h  13.5km  100%  Rain 
 25/09/2018 - 15:00  13.3°C  13.3°C  1022.1 hPa  88%  21.9 km/h   53.0 km/h  80%  2.15 mm/h  12.4km  100%  Rain 
 25/09/2018 - 16:00  13.8°C  13.8°C  1020.8 hPa  89%  22.3 km/h   53.0 km/h  78%  1.68 mm/h  11.3km  100%  Rain 
 25/09/2018 - 17:00  14.5°C  14.5°C  1019.7 hPa  88%  22.7 km/h   52.1 km/h  74%  1.30 mm/h  11.3km  100%  Light Rain 
 25/09/2018 - 18:00  15.1°C  15.1°C  1019.0 hPa  87%  22.7 km/h   49.7 km/h  69%  0.88 mm/h  13.1km  100%  Light Rain 
 25/09/2018 - 19:00  16.0°C  16.0°C  1018.4 hPa  83%  22.6 km/h   46.2 km/h  57%  0.54 mm/h  16.0km  100%  Overcast 
 25/09/2018 - 20:00  16.7°C  16.7°C  1017.8 hPa  81%  22.1 km/h   42.3 km/h  51%  0.36 mm/h  16.1km  100%  Overcast 
 25/09/2018 - 21:00  16.6°C  16.6°C  1017.1 hPa  84%  21.1 km/h   37.9 km/h  45%  0.24 mm/h  16.1km  100%  Overcast 
 25/09/2018 - 22:00  17.5°C  17.5°C  1016.4 hPa  81%  19.8 km/h   33.1 km/h  51%  0.37 mm/h  16.1km  100%  Overcast 
 25/09/2018 - 23:00  17.7°C  17.7°C  1015.5 hPa  82%  18.6 km/h   29.7 km/h  55%  0.58 mm/h  16.1km  100%  Overcast 
 26/09/2018 - 00:00  18.0°C  18.0°C  1014.5 hPa  82%  17.6 km/h   28.7 km/h  53%  0.55 mm/h  16.1km  100%  Overcast 
 26/09/2018 - 01:00  18.3°C  18.4°C  1013.4 hPa  82%  16.7 km/h   29.1 km/h  49%  0.60 mm/h  16.1km  100%  Overcast 
 26/09/2018 - 02:00  18.6°C  18.6°C  1012.3 hPa  82%  16.3 km/h   29.5 km/h  51%  0.70 mm/h  16.1km  100%  Overcast 
 26/09/2018 - 03:00  18.8°C  18.9°C  1011.3 hPa  82%  16.6 km/h   29.2 km/h  49%  0.55 mm/h  16.1km  100%  Overcast 
 26/09/2018 - 04:00  19.1°C  19.2°C  1010.3 hPa  82%  17.4 km/h   28.9 km/h  46%  0.33 mm/h  16.1km  100%  Overcast 
 26/09/2018 - 05:00  19.2°C  19.3°C  1009.5 hPa  83%  18.2 km/h   29.6 km/h  44%  0.20 mm/h  16.1km  100%  Overcast 
 26/09/2018 - 06:00  19.1°C  19.3°C  1008.9 hPa  85%  18.7 km/h   31.6 km/h  43%  0.18 mm/h  16.1km  100%  Overcast 
 26/09/2018 - 07:00  19.1°C  19.4°C  1008.4 hPa  87%  19.2 km/h   34.5 km/h  50%  0.42 mm/h  16.1km  99%  Overcast 
 26/09/2018 - 08:00  19.5°C  19.8°C  1007.9 hPa  87%  20.0 km/h   38.0 km/h  54%  0.65 mm/h  16.1km  99%  Overcast 
 26/09/2018 - 09:00  20.5°C  20.9°C  1007.2 hPa  86%  21.0 km/h   41.7 km/h  50%  0.45 mm/h  16.1km  98%  Overcast 
 26/09/2018 - 10:00  21.7°C  22.1°C  1006.4 hPa  84%  22.3 km/h   44.9 km/h  44%  0.31 mm/h  16.1km  97%  Overcast 
 26/09/2018 - 11:00  23.0°C  23.5°C  1005.7 hPa  81%  23.6 km/h   47.2 km/h  44%  0.44 mm/h  16.1km  97%  Overcast 
 26/09/2018 - 12:00  23.6°C  24.1°C  1004.8 hPa  79%  24.9 km/h   49.7 km/h  46%  0.71 mm/h  16.1km  90%  Breezy and Mostly Cloudy 
 26/09/2018 - 13:00  23.8°C  24.3°C  1004.0 hPa  79%  26.2 km/h   52.3 km/h  56%  1.35 mm/h  12.8km  82%  Light Rain and Breezy 
Test

 

Past weather and reports

Past weatherFind in this section the past weather conditions, weather archive, graphics, reports and statistics.

Current conditions

Current weather condition for MontrealAll you need to know about the current weather conditions for Montreal. Weather data is updated every 10 minutes.

Weather forecast

Current Montreal weatherSince 2004, celinium.com website has provided accurate weather forecast for Montreal's island.